Time;durP1;ratioP1;P1;durP2;ratioP2;P2;SDS_P1;SDS_P2;PMS_P1;PMS_P2;Temp;Humidity;BMP_temperature;BMP_pressure;BME280_temperature;BME280_humidity;BME280_pressure;Samples;Min_cycle;Max_cycle;Signal;HPM_P1;HPM_P2
2023/09/01 00:00:43;;;;;;;1.08;1.08;;;;;;;;;;6160950;23;20250;-93
2023/09/01 00:03:11;;;;;;;1.23;1.23;;;;;;;;;;6160517;23;20167;-93
2023/09/01 00:05:39;;;;;;;1.27;1.20;;;;;;;;;;6159687;23;20210;-93
2023/09/01 00:08:08;;;;;;;1.17;1.08;;;;;;;;;;6160960;23;20266;-93
2023/09/01 00:10:39;;;;;;;1.10;1.10;;;;;;;;;;6160481;23;20175;-93
2023/09/01 00:13:07;;;;;;;0.93;0.93;;;;;;;;;;6160816;23;20202;-93
2023/09/01 00:15:36;;;;;;;2.03;1.35;;;;;;;;;;6160376;23;20559;-93
2023/09/01 00:18:05;;;;;;;2.28;1.75;;;;;;;;;;6160795;23;20191;-93
2023/09/01 00:20:34;;;;;;;2.35;1.40;;;;;;;;;;6160180;23;20175;-93
2023/09/01 00:23:02;;;;;;;1.48;1.45;;;;;;;;;;6160398;23;20234;-94
2023/09/01 00:25:30;;;;;;;1.17;1.10;;;;;;;;;;6160778;23;20186;-95
2023/09/01 00:27:58;;;;;;;1.48;1.38;;;;;;;;;;6158559;23;20190;-93
2023/09/01 00:30:28;;;;;;;1.10;1.10;;;;;;;;;;6160532;23;20171;-93
2023/09/01 00:32:56;;;;;;;0.98;0.98;;;;;;;;;;6157340;23;20211;-93
2023/09/01 00:35:24;;;;;;;1.80;1.30;;;;;;;;;;6157684;23;20266;-94
2023/09/01 00:37:52;;;;;;;1.20;1.10;;;;;;;;;;6160540;23;20423;-93
2023/09/01 00:40:19;;;;;;;1.70;1.60;;;;;;;;;;6157877;23;20190;-93
2023/09/01 00:42:48;;;;;;;1.30;1.20;;;;;;;;;;6157164;23;20250;-93
2023/09/01 00:45:16;;;;;;;0.95;0.95;;;;;;;;;;6157365;23;20214;-94
2023/09/01 00:47:44;;;;;;;1.20;1.20;;;;;;;;;;6156816;23;20190;-93
2023/09/01 00:50:14;;;;;;;1.17;1.17;;;;;;;;;;6157125;23;20183;-93
2023/09/01 00:52:41;;;;;;;1.60;1.45;;;;;;;;;;6157231;23;20195;-93
2023/09/01 00:55:09;;;;;;;1.52;1.42;;;;;;;;;;6157777;23;20215;-93
2023/09/01 00:57:37;;;;;;;1.30;1.30;;;;;;;;;;6157860;23;20193;-93
2023/09/01 01:00:06;;;;;;;1.40;1.30;;;;;;;;;;6160296;23;20250;-92
2023/09/01 01:02:34;;;;;;;1.70;1.60;;;;;;;;;;6157587;23;20238;-94
2023/09/01 01:05:10;;;;;;;1.10;1.10;;;;;;;;;;6160032;23;20191;-93
2023/09/01 01:07:50;;;;;;;1.60;1.50;;;;;;;;;;6157712;23;20177;-93
2023/09/01 01:10:21;;;;;;;1.50;1.40;;;;;;;;;;6157130;23;20183;-92
2023/09/01 01:12:53;;;;;;;1.30;1.20;;;;;;;;;;6158318;23;20187;-93
2023/09/01 01:15:22;;;;;;;1.42;1.30;;;;;;;;;;6156855;23;20262;-93
2023/09/01 01:17:51;;;;;;;1.58;1.50;;;;;;;;;;6156834;23;20175;-93
2023/09/01 01:20:31;;;;;;;1.63;1.52;;;;;;;;;;6158511;23;20255;-92
2023/09/01 01:23:09;;;;;;;1.30;1.20;;;;;;;;;;6157457;23;20572;-93
2023/09/01 01:25:37;;;;;;;2.72;2.03;;;;;;;;;;6158988;23;20187;-93
2023/09/01 01:28:08;;;;;;;1.88;1.77;;;;;;;;;;6159639;23;20199;-92
2023/09/01 01:30:37;;;;;;;2.15;1.90;;;;;;;;;;6156909;23;20242;-93
2023/09/01 01:33:05;;;;;;;2.15;2.00;;;;;;;;;;6156930;23;20246;-94
2023/09/01 01:35:40;;;;;;;2.38;2.20;;;;;;;;;;6157892;23;20187;-93
2023/09/01 01:38:19;;;;;;;2.80;2.58;;;;;;;;;;6157917;23;20234;-93
2023/09/01 01:40:51;;;;;;;3.58;2.97;;;;;;;;;;6158989;23;20628;-93
2023/09/01 01:43:23;;;;;;;2.55;2.35;;;;;;;;;;6157630;23;20242;-93
2023/09/01 01:45:51;;;;;;;2.67;2.47;;;;;;;;;;6157810;23;20201;-93
2023/09/01 01:48:18;;;;;;;2.50;2.30;;;;;;;;;;6160115;23;20643;-94
2023/09/01 01:50:46;;;;;;;1.90;1.80;;;;;;;;;;6159154;23;20249;-93
2023/09/01 01:53:15;;;;;;;1.58;1.52;;;;;;;;;;6157596;23;20222;-94
2023/09/01 01:55:43;;;;;;;1.40;1.30;;;;;;;;;;6159973;23;20211;-94
2023/09/01 01:58:10;;;;;;;1.45;1.35;;;;;;;;;;6158369;23;20642;-93
2023/09/01 02:00:38;;;;;;;1.98;1.88;;;;;;;;;;6156355;23;20187;-93
2023/09/01 02:03:05;;;;;;;2.05;1.80;;;;;;;;;;6156525;23;20246;-93
2023/09/01 02:05:33;;;;;;;1.95;1.85;;;;;;;;;;6156711;23;20191;-93
2023/09/01 02:08:05;;;;;;;2.30;2.10;;;;;;;;;;6160404;23;20254;-93
2023/09/01 02:10:34;;;;;;;2.22;1.30;;;;;;;;;;6160238;23;20183;-93
2023/09/01 02:13:04;;;;;;;2.38;2.17;;;;;;;;;;6161974;23;20210;-93
2023/09/01 02:15:31;;;;;;;1.60;1.50;;;;;;;;;;6160740;23;20267;-93
2023/09/01 02:17:59;;;;;;;1.52;1.40;;;;;;;;;;6159660;23;20250;-93
2023/09/01 02:20:28;;;;;;;1.73;1.60;;;;;;;;;;6159640;23;20214;-93
2023/09/01 02:22:56;;;;;;;1.70;1.60;;;;;;;;;;6158138;23;20171;-93
2023/09/01 02:25:24;;;;;;;2.28;1.83;;;;;;;;;;6157447;23;20742;-93
2023/09/01 02:27:53;;;;;;;2.30;2.10;;;;;;;;;;6162006;23;20186;-94
2023/09/01 02:30:20;;;;;;;1.73;1.63;;;;;;;;;;6160748;23;20381;-94
2023/09/01 02:32:48;;;;;;;1.85;1.75;;;;;;;;;;6156725;23;20217;-93
2023/09/01 02:35:16;;;;;;;1.35;1.30;;;;;;;;;;6156985;23;20266;-93
2023/09/01 02:37:43;;;;;;;0.90;0.90;;;;;;;;;;6156898;23;20218;-93
2023/09/01 02:40:11;;;;;;;1.17;1.17;;;;;;;;;;6155797;23;20206;-93
2023/09/01 02:42:40;;;;;;;1.55;1.45;;;;;;;;;;6155923;23;20171;-94
2023/09/01 02:45:12;;;;;;;1.40;1.30;;;;;;;;;;6157595;23;20227;-94
2023/09/01 02:47:40;;;;;;;1.25;1.15;;;;;;;;;;6158332;23;20238;-93
2023/09/01 02:50:08;;;;;;;1.00;0.95;;;;;;;;;;6156309;23;20171;-94
2023/09/01 02:52:36;;;;;;;1.25;1.15;;;;;;;;;;6156382;23;20194;-93
2023/09/01 02:55:06;;;;;;;1.52;1.42;;;;;;;;;;6156615;23;20242;-94
2023/09/01 02:57:35;;;;;;;1.10;1.10;;;;;;;;;;6156176;23;20175;-93
2023/09/01 03:00:14;;;;;;;1.27;1.20;;;;;;;;;;6158113;23;20184;-93
2023/09/01 03:02:43;;;;;;;3.17;1.60;;;;;;;;;;6159036;23;20171;-94
2023/09/01 03:05:11;;;;;;;2.10;1.90;;;;;;;;;;6158792;23;20218;-94
2023/09/01 03:07:40;;;;;;;2.28;2.05;;;;;;;;;;6159629;23;20182;-93
2023/09/01 03:10:09;;;;;;;1.20;1.20;;;;;;;;;;6155974;23;20241;-94
2023/09/01 03:12:38;;;;;;;1.10;1.10;;;;;;;;;;6156525;23;20171;-93
2023/09/01 03:15:08;;;;;;;1.85;1.60;;;;;;;;;;6156156;23;20218;-94
2023/09/01 03:17:35;;;;;;;1.65;1.42;;;;;;;;;;6159863;23;20183;-93
2023/09/01 03:20:09;;;;;;;1.45;1.35;;;;;;;;;;6156104;23;20193;-93
2023/09/01 03:22:37;;;;;;;1.60;1.50;;;;;;;;;;6156172;23;20166;-93
2023/09/01 03:25:09;;;;;;;2.05;1.92;;;;;;;;;;6156286;23;20197;-93
2023/09/01 03:27:37;;;;;;;2.03;1.92;;;;;;;;;;6156466;23;20164;-93
2023/09/01 03:30:07;;;;;;;2.08;1.98;;;;;;;;;;6160496;23;20171;-93
2023/09/01 03:32:34;;;;;;;2.08;1.58;;;;;;;;;;6169029;23;20171;-93
2023/09/01 03:35:04;;;;;;;1.20;1.20;;;;;;;;;;6160199;23;20219;-93
2023/09/01 03:37:31;;;;;;;1.30;1.27;;;;;;;;;;6160561;23;20230;-94
2023/09/01 03:39:59;;;;;;;1.73;1.65;;;;;;;;;;6159723;23;20213;-94
2023/09/01 03:42:27;;;;;;;1.42;1.33;;;;;;;;;;6158890;23;20254;-94
2023/09/01 03:44:54;;;;;;;1.92;1.80;;;;;;;;;;6158241;23;20207;-93
2023/09/01 03:47:22;;;;;;;5.78;2.42;;;;;;;;;;6159784;23;20175;-93
2023/09/01 03:49:50;;;;;;;2.85;2.55;;;;;;;;;;6167930;23;20187;-93
2023/09/01 03:52:21;;;;;;;2.92;2.72;;;;;;;;;;6157332;23;20247;-93
2023/09/01 03:54:49;;;;;;;3.30;3.10;;;;;;;;;;6154630;23;20254;-93
2023/09/01 03:57:17;;;;;;;2.88;2.67;;;;;;;;;;6155471;23;20262;-93
2023/09/01 03:59:44;;;;;;;2.83;2.63;;;;;;;;;;6163468;23;20178;-92
2023/09/01 04:02:12;;;;;;;2.67;2.47;;;;;;;;;;6157041;23;20628;-93
2023/09/01 04:04:40;;;;;;;2.72;2.50;;;;;;;;;;6155291;23;20206;-94
2023/09/01 04:07:09;;;;;;;1.80;1.70;;;;;;;;;;6157625;23;20242;-92
2023/09/01 04:09:38;;;;;;;1.90;1.80;;;;;;;;;;6171562;23;20159;-93
2023/09/01 04:12:07;;;;;;;2.30;2.10;;;;;;;;;;6181051;23;20182;-93
2023/09/01 04:14:35;;;;;;;2.38;2.20;;;;;;;;;;6179589;23;20207;-93
2023/09/01 04:17:04;;;;;;;2.15;2.05;;;;;;;;;;6178461;23;20171;-94
2023/09/01 04:19:31;;;;;;;1.70;1.60;;;;;;;;;;6176531;23;20187;-93
2023/09/01 04:21:59;;;;;;;2.63;2.42;;;;;;;;;;6160342;23;20190;-94
2023/09/01 04:24:26;;;;;;;2.35;2.25;;;;;;;;;;6154908;23;20195;-94
2023/09/01 04:26:55;;;;;;;1.73;1.63;;;;;;;;;;6155052;23;20250;-93
2023/09/01 04:29:23;;;;;;;1.80;1.70;;;;;;;;;;6155216;23;20201;-92
2023/09/01 04:31:51;;;;;;;1.80;1.70;;;;;;;;;;6155335;23;20198;-94
2023/09/01 04:34:20;;;;;;;1.48;1.38;;;;;;;;;;6154680;23;20191;-93
2023/09/01 04:36:49;;;;;;;1.35;1.30;;;;;;;;;;6155180;23;20195;-93
2023/09/01 04:39:17;;;;;;;1.75;1.50;;;;;;;;;;6155276;23;20183;-94
2023/09/01 04:41:45;;;;;;;1.50;1.40;;;;;;;;;;6154965;23;20167;-92
2023/09/01 04:44:14;;;;;;;1.50;1.40;;;;;;;;;;6154007;23;20171;-93
2023/09/01 04:46:42;;;;;;;1.58;1.42;;;;;;;;;;6154598;23;20209;-93
2023/09/01 04:49:10;;;;;;;1.50;1.40;;;;;;;;;;6154949;23;20237;-93
2023/09/01 04:51:37;;;;;;;1.85;1.65;;;;;;;;;;6154840;23;20246;-94
2023/09/01 04:54:06;;;;;;;1.30;1.20;;;;;;;;;;6154401;23;20194;-94
2023/09/01 04:56:34;;;;;;;1.60;1.50;;;;;;;;;;6154833;23;20246;-94
2023/09/01 04:59:02;;;;;;;1.52;1.42;;;;;;;;;;6154799;23;20191;-93
2023/09/01 05:01:31;;;;;;;1.20;0.93;;;;;;;;;;6155208;23;20258;-93
2023/09/01 05:03:59;;;;;;;1.13;1.13;;;;;;;;;;6154698;23;20197;-93
2023/09/01 05:06:27;;;;;;;1.02;1.02;;;;;;;;;;6155189;23;20780;-93
2023/09/01 05:08:54;;;;;;;1.70;1.60;;;;;;;;;;6169322;23;20185;-93
2023/09/01 05:11:22;;;;;;;1.40;1.35;;;;;;;;;;6175862;23;20187;-93
2023/09/01 05:13:49;;;;;;;1.00;1.00;;;;;;;;;;6177491;23;20155;-92
2023/09/01 05:16:17;;;;;;;1.10;1.00;;;;;;;;;;6176868;23;20183;-93
2023/09/01 05:18:46;;;;;;;1.33;1.23;;;;;;;;;;6179102;23;20175;-93
2023/09/01 05:21:14;;;;;;;1.20;1.20;;;;;;;;;;6170482;23;20177;-94
2023/09/01 05:23:41;;;;;;;1.38;1.27;;;;;;;;;;6160732;23;20255;-93
2023/09/01 05:26:09;;;;;;;1.15;1.15;;;;;;;;;;6157613;23;20285;-92
2023/09/01 05:28:37;;;;;;;1.00;1.00;;;;;;;;;;6158704;23;20194;-94
2023/09/01 05:31:04;;;;;;;1.20;1.20;;;;;;;;;;6157387;23;20183;-93
2023/09/01 05:33:32;;;;;;;1.58;1.48;;;;;;;;;;6156681;23;20648;-94
2023/09/01 05:36:01;;;;;;;1.80;1.45;;;;;;;;;;6156413;23;20670;-94
2023/09/01 05:38:28;;;;;;;1.70;1.60;;;;;;;;;;6158430;23;20187;-93
2023/09/01 05:40:57;;;;;;;1.65;1.50;;;;;;;;;;6156431;23;20175;-93
2023/09/01 05:43:25;;;;;;;1.40;1.30;;;;;;;;;;6156084;23;20171;-94
2023/09/01 05:45:53;;;;;;;1.60;1.50;;;;;;;;;;6156517;23;20217;-94
2023/09/01 05:48:20;;;;;;;1.35;1.30;;;;;;;;;;6157475;23;20796;-95
2023/09/01 05:50:48;;;;;;;1.83;1.73;;;;;;;;;;6157077;23;20198;-94
2023/09/01 05:53:17;;;;;;;2.15;1.83;;;;;;;;;;6163050;23;20178;-93
2023/09/01 05:55:45;;;;;;;2.20;1.92;;;;;;;;;;6160502;23;20202;-95
2023/09/01 05:58:12;;;;;;;2.03;1.90;;;;;;;;;;6163590;23;20246;-93
2023/09/01 06:00:40;;;;;;;2.42;2.08;;;;;;;;;;6160410;23;20201;-94
2023/09/01 06:03:08;;;;;;;2.25;2.05;;;;;;;;;;6158690;23;20171;-93
2023/09/01 06:05:35;;;;;;;2.03;1.92;;;;;;;;;;6162429;23;20218;-94
2023/09/01 06:08:04;;;;;;;1.88;1.77;;;;;;;;;;6162654;23;20190;-95
2023/09/01 06:10:33;;;;;;;3.33;2.08;;;;;;;;;;6163329;23;20190;-94
2023/09/01 06:13:00;;;;;;;3.88;2.40;;;;;;;;;;6164016;23;20171;-94
2023/09/01 06:15:28;;;;;;;2.70;2.28;;;;;;;;;;6167523;23;20199;-95
2023/09/01 06:17:56;;;;;;;3.50;2.78;;;;;;;;;;6167303;23;20627;-94
2023/09/01 06:20:23;;;;;;;3.42;3.13;;;;;;;;;;6166206;23;20189;-94
2023/09/01 06:22:54;;;;;;;3.55;2.92;;;;;;;;;;6176692;23;20183;-93
2023/09/01 10:13:10;;;;;;;0.80;0.80;;;;;;;;;;6196536;23;20174;-95
2023/09/01 10:15:38;;;;;;;0.90;0.80;;;;;;;;;;6215469;23;20161;-94
2023/09/01 10:28:19;;;;;;;0.85;0.85;;;;;;;;;;6153280;23;20155;-96
2023/09/01 11:29:56;;;;;;;0.60;0.60;;;;;;;;;;6198196;23;20162;-96
2023/09/01 11:32:30;;;;;;;0.90;0.90;;;;;;;;;;6214350;23;20146;-94
2023/09/01 11:41:22;;;;;;;1.02;1.02;;;;;;;;;;6192161;23;20147;-95
2023/09/01 11:43:51;;;;;;;0.60;0.60;;;;;;;;;;6184133;23;20152;-94
2023/09/01 11:46:32;;;;;;;0.60;0.60;;;;;;;;;;6184234;23;20151;-94
2023/09/01 11:49:00;;;;;;;0.68;0.68;;;;;;;;;;6184379;23;20164;-96
2023/09/01 11:51:32;;;;;;;0.47;0.47;;;;;;;;;;6184349;23;20207;-94
2023/09/01 11:54:08;;;;;;;0.50;0.50;;;;;;;;;;6185210;23;20148;-96
2023/09/01 11:57:35;;;;;;;0.68;0.68;;;;;;;;;;6186416;23;20151;-96
2023/09/01 12:25:38;;;;;;;0.90;0.85;;;;;;;;;;6155172;23;20170;-95
2023/09/01 12:28:05;;;;;;;0.80;0.80;;;;;;;;;;6213873;23;20159;-95
2023/09/01 12:30:33;;;;;;;1.20;0.80;;;;;;;;;;6212145;23;20162;-96
2023/09/01 12:33:01;;;;;;;0.70;0.70;;;;;;;;;;6213283;23;20233;-95
2023/09/01 12:35:29;;;;;;;0.90;0.90;;;;;;;;;;6210728;23;20209;-94
2023/09/01 12:37:57;;;;;;;0.80;0.80;;;;;;;;;;6210704;23;20191;-95
2023/09/01 12:40:24;;;;;;;0.80;0.80;;;;;;;;;;6207044;23;20434;-95
2023/09/01 12:42:53;;;;;;;0.60;0.60;;;;;;;;;;6212965;23;20177;-94
2023/09/01 12:45:21;;;;;;;0.70;0.70;;;;;;;;;;6209030;23;20193;-94
2023/09/01 12:47:48;;;;;;;0.80;0.80;;;;;;;;;;6211413;23;20170;-95
2023/09/01 12:50:16;;;;;;;1.00;0.75;;;;;;;;;;6212200;23;20158;-94
2023/09/01 12:52:44;;;;;;;1.08;1.02;;;;;;;;;;6212724;23;20161;-95
2023/09/01 12:55:12;;;;;;;0.93;0.93;;;;;;;;;;6203528;23;20178;-94
2023/09/01 12:57:39;;;;;;;1.00;1.00;;;;;;;;;;6203375;23;20194;-95
2023/09/01 13:00:11;;;;;;;0.85;0.85;;;;;;;;;;6211760;23;20223;-96
2023/09/01 13:02:39;;;;;;;0.80;0.80;;;;;;;;;;6210741;23;20181;-94
2023/09/01 13:05:07;;;;;;;0.80;0.70;;;;;;;;;;6197500;23;20182;-93
2023/09/01 13:07:35;;;;;;;0.73;0.73;;;;;;;;;;6192055;23;20186;-95
2023/09/01 13:10:03;;;;;;;1.10;1.10;;;;;;;;;;6196532;23;20189;-94
2023/09/01 13:12:30;;;;;;;0.65;0.65;;;;;;;;;;6192372;23;20187;-93
2023/09/01 13:14:59;;;;;;;0.80;0.80;;;;;;;;;;6190210;23;20635;-94
2023/09/01 13:17:28;;;;;;;0.80;0.80;;;;;;;;;;6193570;23;20195;-93
2023/09/01 13:19:56;;;;;;;0.70;0.70;;;;;;;;;;6194557;23;20181;-93
2023/09/01 13:22:25;;;;;;;0.80;0.80;;;;;;;;;;6195380;23;20186;-94
2023/09/01 13:24:55;;;;;;;0.80;0.80;;;;;;;;;;6194639;23;20181;-93
2023/09/01 13:27:23;;;;;;;0.90;0.90;;;;;;;;;;6194756;23;20199;-93
2023/09/01 13:29:50;;;;;;;0.90;0.90;;;;;;;;;;6193241;23;20193;-95
2023/09/01 13:32:18;;;;;;;2.38;0.88;;;;;;;;;;6206112;23;20177;-94
2023/09/01 13:34:48;;;;;;;0.90;0.90;;;;;;;;;;6209345;23;20341;-95
2023/09/01 13:37:16;;;;;;;0.90;0.90;;;;;;;;;;6209435;23;20194;-94
2023/09/01 13:39:43;;;;;;;0.77;0.77;;;;;;;;;;6206603;23;20158;-94
2023/09/01 13:42:11;;;;;;;0.88;0.88;;;;;;;;;;6202922;23;20182;-93
2023/09/01 13:44:39;;;;;;;0.80;0.80;;;;;;;;;;6202217;23;20201;-94
2023/09/01 13:47:06;;;;;;;0.63;0.63;;;;;;;;;;6199851;23;20182;-94
2023/09/01 13:49:34;;;;;;;0.82;0.82;;;;;;;;;;6198644;23;20185;-94
2023/09/01 13:52:03;;;;;;;0.77;0.77;;;;;;;;;;6197417;23;20182;-94
2023/09/01 13:54:31;;;;;;;0.93;0.93;;;;;;;;;;6196922;23;20171;-94
2023/09/01 13:56:58;;;;;;;0.93;0.93;;;;;;;;;;6196619;23;20201;-94
2023/09/01 13:59:26;;;;;;;0.82;0.82;;;;;;;;;;6192704;23;20190;-94
2023/09/01 14:01:53;;;;;;;0.70;0.70;;;;;;;;;;6199623;23;20203;-95
2023/09/01 14:04:21;;;;;;;0.68;0.68;;;;;;;;;;6194654;23;20171;-95
2023/09/01 14:06:49;;;;;;;0.50;0.50;;;;;;;;;;6196796;23;20204;-94
2023/09/01 14:09:18;;;;;;;0.40;0.40;;;;;;;;;;6200063;23;20174;-94
2023/09/01 14:11:45;;;;;;;0.70;0.70;;;;;;;;;;6200525;23;20197;-95
2023/09/01 14:14:13;;;;;;;0.60;0.60;;;;;;;;;;6194652;23;20174;-94
2023/09/01 14:16:41;;;;;;;0.52;0.52;;;;;;;;;;6199978;23;20194;-94
2023/09/01 14:19:09;;;;;;;0.57;0.57;;;;;;;;;;6202384;23;20194;-94
2023/09/01 14:21:37;;;;;;;0.52;0.52;;;;;;;;;;6203875;23;20170;-95
2023/09/01 14:24:06;;;;;;;0.75;0.75;;;;;;;;;;6207820;23;20167;-94
2023/09/01 14:26:35;;;;;;;0.73;0.73;;;;;;;;;;6205972;23;20202;-94
2023/09/01 14:29:04;;;;;;;0.73;0.68;;;;;;;;;;6207876;23;20585;-94
2023/09/01 14:31:31;;;;;;;0.50;0.50;;;;;;;;;;6207982;23;20221;-95
2023/09/01 14:34:00;;;;;;;0.40;0.40;;;;;;;;;;6207514;23;20167;-95
2023/09/01 14:36:28;;;;;;;0.50;0.50;;;;;;;;;;6205736;23;20204;-94
2023/09/01 14:38:56;;;;;;;0.50;0.50;;;;;;;;;;6206747;23;20195;-94
2023/09/01 14:41:23;;;;;;;0.43;0.43;;;;;;;;;;6209208;23;20197;-95
2023/09/01 14:43:52;;;;;;;0.80;0.80;;;;;;;;;;6206165;23;20177;-94
2023/09/01 14:46:21;;;;;;;0.75;0.75;;;;;;;;;;6205604;23;20191;-95
2023/09/01 14:48:50;;;;;;;0.80;0.75;;;;;;;;;;6208265;23;20175;-94
2023/09/01 14:51:18;;;;;;;0.50;0.50;;;;;;;;;;6206607;23;20170;-94
2023/09/01 14:53:46;;;;;;;0.63;0.63;;;;;;;;;;6206604;23;20221;-95
2023/09/01 14:56:14;;;;;;;0.65;0.65;;;;;;;;;;6208303;23;20198;-95
2023/09/01 14:58:41;;;;;;;0.80;0.80;;;;;;;;;;6204170;23;20194;-94
2023/09/01 15:01:10;;;;;;;0.50;0.50;;;;;;;;;;6208456;23;20154;-95
2023/09/01 15:03:38;;;;;;;0.55;0.55;;;;;;;;;;6206122;23;20174;-95
2023/09/01 15:06:06;;;;;;;0.52;0.52;;;;;;;;;;6205581;23;20201;-94
2023/09/01 15:08:33;;;;;;;0.40;0.40;;;;;;;;;;6204669;23;20182;-94
2023/09/01 15:11:03;;;;;;;0.40;0.40;;;;;;;;;;6201488;23;20172;-94
2023/09/01 15:13:31;;;;;;;0.50;0.50;;;;;;;;;;6203855;23;20171;-94
2023/09/01 15:15:59;;;;;;;0.50;0.50;;;;;;;;;;6204241;23;20194;-95
2023/09/01 15:18:28;;;;;;;0.68;0.68;;;;;;;;;;6203561;23;20178;-94
2023/09/01 15:21:04;;;;;;;0.50;0.50;;;;;;;;;;6203092;23;20170;-95
2023/09/01 15:23:32;;;;;;;0.35;0.35;;;;;;;;;;6203760;23;20169;-94
2023/09/01 15:25:59;;;;;;;0.60;0.60;;;;;;;;;;6205717;23;20198;-94
2023/09/01 15:28:27;;;;;;;0.45;0.45;;;;;;;;;;6208768;23;20177;-95
2023/09/01 15:30:55;;;;;;;0.70;0.70;;;;;;;;;;6208956;23;20174;-95
2023/09/01 15:33:22;;;;;;;0.90;0.90;;;;;;;;;;6209099;23;20171;-94
2023/09/01 15:35:59;;;;;;;0.82;0.63;;;;;;;;;;6206259;23;20194;-95
2023/09/01 15:38:28;;;;;;;0.63;0.63;;;;;;;;;;6208893;23;20599;-94
2023/09/01 15:40:59;;;;;;;0.50;0.50;;;;;;;;;;6208391;23;20618;-94
2023/09/01 15:43:26;;;;;;;0.60;0.60;;;;;;;;;;6207465;23;20205;-95
2023/09/01 15:45:57;;;;;;;0.52;0.52;;;;;;;;;;6208980;23;20212;-95
2023/09/01 15:48:25;;;;;;;0.60;0.60;;;;;;;;;;6206423;23;20171;-95
2023/09/01 15:50:55;;;;;;;0.57;0.57;;;;;;;;;;6206061;23;20178;-94
2023/09/01 15:53:24;;;;;;;0.45;0.45;;;;;;;;;;6202610;23;20170;-94
2023/09/01 15:55:54;;;;;;;0.50;0.50;;;;;;;;;;6204354;23;20190;-94
2023/09/01 15:58:22;;;;;;;0.40;0.40;;;;;;;;;;6204709;23;20166;-95
2023/09/01 16:00:54;;;;;;;0.40;0.40;;;;;;;;;;6205672;23;20202;-94
2023/09/01 16:03:21;;;;;;;0.28;0.28;;;;;;;;;;6205158;23;20173;-95
2023/09/01 16:05:49;;;;;;;0.35;0.35;;;;;;;;;;6206103;23;20194;-94
2023/09/01 16:08:17;;;;;;;0.77;0.77;;;;;;;;;;6204571;23;20174;-94
2023/09/01 16:10:46;;;;;;;0.82;0.60;;;;;;;;;;6204755;23;20178;-94
2023/09/01 16:13:14;;;;;;;1.60;1.50;;;;;;;;;;6204711;23;20230;-94
2023/09/01 16:15:41;;;;;;;0.68;0.68;;;;;;;;;;6208333;23;20190;-94
2023/09/01 16:18:09;;;;;;;0.70;0.70;;;;;;;;;;6207799;23;20158;-96
2023/09/01 16:20:37;;;;;;;0.90;0.90;;;;;;;;;;6210093;23;20221;-95
2023/09/01 16:23:05;;;;;;;1.20;0.70;;;;;;;;;;6208918;23;20170;-95
2023/09/01 16:25:35;;;;;;;0.80;0.80;;;;;;;;;;6206540;23;20195;-95
2023/09/01 16:28:05;;;;;;;0.95;0.95;;;;;;;;;;6208355;23;20178;-95
2023/09/01 16:30:34;;;;;;;0.70;0.70;;;;;;;;;;6208172;23;20182;-94
2023/09/01 16:33:03;;;;;;;1.50;0.70;;;;;;;;;;6210403;23;20150;-96
2023/09/01 16:35:30;;;;;;;0.52;0.43;;;;;;;;;;6209394;23;20189;-95
2023/09/01 16:37:58;;;;;;;0.40;0.40;;;;;;;;;;6210365;23;20182;-95
2023/09/01 16:40:25;;;;;;;0.40;0.40;;;;;;;;;;6209684;23;20198;-95
2023/09/01 16:42:53;;;;;;;0.57;0.57;;;;;;;;;;6213487;23;20166;-95
2023/09/01 16:45:22;;;;;;;0.40;0.40;;;;;;;;;;6213633;23;20162;-95
2023/09/01 16:47:50;;;;;;;0.38;0.38;;;;;;;;;;6214011;23;20154;-96
2023/09/01 16:50:18;;;;;;;0.50;0.50;;;;;;;;;;6214024;23;20162;-95
2023/09/01 16:52:45;;;;;;;0.40;0.40;;;;;;;;;;6213857;23;20155;-95
2023/09/01 16:55:13;;;;;;;0.40;0.40;;;;;;;;;;6207763;23;20181;-94
2023/09/01 16:57:40;;;;;;;0.47;0.47;;;;;;;;;;6207234;23;20158;-95
2023/09/01 17:00:11;;;;;;;0.80;0.80;;;;;;;;;;6209180;23;20201;-95
2023/09/01 17:02:40;;;;;;;0.30;0.30;;;;;;;;;;6210246;23;20166;-95
2023/09/01 17:05:08;;;;;;;0.60;0.60;;;;;;;;;;6206705;23;20171;-95
2023/09/01 17:07:36;;;;;;;0.50;0.50;;;;;;;;;;6205932;23;20178;-95
2023/09/01 17:10:06;;;;;;;0.40;0.40;;;;;;;;;;6206122;23;20174;-94
2023/09/01 17:12:33;;;;;;;0.50;0.50;;;;;;;;;;6207287;23;20163;-94
2023/09/01 17:15:02;;;;;;;0.47;0.47;;;;;;;;;;6208160;23;20350;-94
2023/09/01 17:17:30;;;;;;;0.77;0.52;;;;;;;;;;6208211;23;20194;-94
2023/09/01 17:19:59;;;;;;;0.35;0.35;;;;;;;;;;6207370;23;20205;-95
2023/09/01 17:22:26;;;;;;;0.40;0.40;;;;;;;;;;6209610;23;20179;-95
2023/09/01 17:24:54;;;;;;;0.40;0.40;;;;;;;;;;6206982;23;20182;-94
2023/09/01 17:27:22;;;;;;;0.60;0.60;;;;;;;;;;6208432;23;20198;-95
2023/09/01 17:29:49;;;;;;;0.38;0.38;;;;;;;;;;6206211;23;20171;-94
2023/09/01 17:32:17;;;;;;;0.47;0.47;;;;;;;;;;6204971;23;20185;-95
2023/09/01 17:34:45;;;;;;;0.70;0.70;;;;;;;;;;6204616;23;20174;-95
2023/09/01 17:37:14;;;;;;;0.60;0.60;;;;;;;;;;6204651;23;20194;-95
2023/09/01 17:39:42;;;;;;;0.30;0.30;;;;;;;;;;6204349;23;20185;-95
2023/09/01 17:42:10;;;;;;;0.40;0.40;;;;;;;;;;6204258;23;20214;-94
2023/09/01 17:44:37;;;;;;;0.35;0.35;;;;;;;;;;6206140;23;20170;-94
2023/09/01 17:47:05;;;;;;;1.27;0.40;;;;;;;;;;6206415;23;20190;-94
2023/09/01 17:49:33;;;;;;;0.52;0.52;;;;;;;;;;6206602;23;20175;-95
2023/09/01 17:52:01;;;;;;;0.52;0.52;;;;;;;;;;6205717;23;20619;-95
2023/09/01 17:54:30;;;;;;;0.50;0.50;;;;;;;;;;6206889;23;20181;-96
2023/09/01 17:56:58;;;;;;;0.30;0.30;;;;;;;;;;6206822;23;20194;-95
2023/09/01 17:59:25;;;;;;;0.50;0.50;;;;;;;;;;6206979;23;20165;-95
2023/09/01 18:01:53;;;;;;;0.55;0.55;;;;;;;;;;6207626;23;20194;-95
2023/09/01 18:04:21;;;;;;;0.50;0.50;;;;;;;;;;6209915;23;20162;-94
2023/09/01 18:06:49;;;;;;;0.47;0.47;;;;;;;;;;6211296;23;20182;-95
2023/09/01 18:09:17;;;;;;;0.40;0.40;;;;;;;;;;6208243;23;20182;-95
2023/09/01 18:11:50;;;;;;;0.60;0.60;;;;;;;;;;6208181;23;20173;-95
2023/09/01 18:14:17;;;;;;;0.52;0.52;;;;;;;;;;6208347;23;20179;-95
2023/09/01 18:16:45;;;;;;;0.50;0.50;;;;;;;;;;6212320;23;20190;-95
2023/09/01 18:19:13;;;;;;;0.90;0.70;;;;;;;;;;6212808;23;20162;-95
2023/09/01 18:21:40;;;;;;;0.38;0.38;;;;;;;;;;6212616;23;20186;-95
2023/09/01 18:24:14;;;;;;;0.50;0.50;;;;;;;;;;6212472;23;20170;-95
2023/09/01 18:26:43;;;;;;;0.30;0.30;;;;;;;;;;6212522;23;20182;-94
2023/09/01 18:29:22;;;;;;;0.60;0.60;;;;;;;;;;6210654;23;20170;-95
2023/09/01 18:31:50;;;;;;;0.28;0.28;;;;;;;;;;6211156;23;20170;-95
2023/09/01 18:34:19;;;;;;;0.85;0.82;;;;;;;;;;6209701;23;20174;-94
2023/09/01 18:36:47;;;;;;;1.15;1.13;;;;;;;;;;6209615;23;20453;-94
2023/09/01 18:39:15;;;;;;;1.10;1.10;;;;;;;;;;6208730;23;20174;-94
2023/09/01 18:41:43;;;;;;;1.67;1.30;;;;;;;;;;6207564;23;20201;-94
2023/09/01 18:44:12;;;;;;;1.08;1.08;;;;;;;;;;6207744;23;20170;-94
2023/09/01 18:46:41;;;;;;;1.30;0.95;;;;;;;;;;6207671;23;20202;-94
2023/09/01 18:49:11;;;;;;;0.60;0.60;;;;;;;;;;6206893;23;20198;-95
2023/09/01 18:51:39;;;;;;;0.60;0.60;;;;;;;;;;6206176;23;20182;-94
2023/09/01 18:54:20;;;;;;;0.68;0.68;;;;;;;;;;6207173;23;20197;-95
2023/09/01 18:56:48;;;;;;;0.40;0.40;;;;;;;;;;6207439;23;20185;-95
2023/09/01 18:59:21;;;;;;;0.85;0.85;;;;;;;;;;6205956;23;20253;-95
2023/09/01 19:01:48;;;;;;;0.63;0.63;;;;;;;;;;6181845;23;20193;-94
2023/09/01 19:04:16;;;;;;;0.77;0.77;;;;;;;;;;6207057;23;20185;-95
2023/09/01 19:06:45;;;;;;;0.63;0.63;;;;;;;;;;6206882;23;20201;-94
2023/09/01 19:09:15;;;;;;;0.30;0.30;;;;;;;;;;6205743;23;20170;-95
2023/09/01 19:11:46;;;;;;;1.05;0.65;;;;;;;;;;6205253;23;20170;-94
2023/09/01 19:14:19;;;;;;;0.60;0.60;;;;;;;;;;6204290;23;20178;-95
2023/09/01 19:16:48;;;;;;;0.75;0.75;;;;;;;;;;6203804;23;20217;-95
2023/09/01 19:19:18;;;;;;;0.57;0.57;;;;;;;;;;6205134;23;20198;-95
2023/09/01 19:21:45;;;;;;;1.95;0.57;;;;;;;;;;6205157;23;20190;-95
2023/09/01 19:24:13;;;;;;;0.70;0.70;;;;;;;;;;6205484;23;20171;-95
2023/09/01 19:26:41;;;;;;;0.60;0.60;;;;;;;;;;6205386;23;20536;-94
2023/09/01 19:29:13;;;;;;;0.60;0.60;;;;;;;;;;6204325;23;20174;-94
2023/09/01 19:31:44;;;;;;;1.08;0.38;;;;;;;;;;6203698;23;20171;-94
2023/09/01 19:34:12;;;;;;;0.50;0.50;;;;;;;;;;6203705;23;20170;-94
2023/09/01 19:36:40;;;;;;;0.50;0.50;;;;;;;;;;6202936;23;20198;-94
2023/09/01 19:39:08;;;;;;;0.50;0.50;;;;;;;;;;6204348;23;20235;-94
2023/09/01 19:41:37;;;;;;;1.02;0.80;;;;;;;;;;6204436;23;20194;-94
2023/09/01 19:44:09;;;;;;;1.63;0.65;;;;;;;;;;6203596;23;20170;-95
2023/09/01 19:46:37;;;;;;;2.90;0.93;;;;;;;;;;6202219;23;20194;-94
2023/09/01 19:49:11;;;;;;;1.33;1.08;;;;;;;;;;6199802;23;20519;-94
2023/09/01 19:51:43;;;;;;;1.42;0.82;;;;;;;;;;6201173;23;20166;-95
2023/09/01 19:54:12;;;;;;;0.60;0.60;;;;;;;;;;6200399;23;20185;-94
2023/09/01 19:56:39;;;;;;;0.73;0.73;;;;;;;;;;6201452;23;20201;-94
2023/09/01 19:59:07;;;;;;;0.85;0.85;;;;;;;;;;6200653;23;20175;-94
2023/09/01 20:01:37;;;;;;;0.80;0.80;;;;;;;;;;6199247;23;20190;-95
2023/09/01 20:04:07;;;;;;;0.77;0.77;;;;;;;;;;6198999;23;20170;-95
2023/09/01 20:06:35;;;;;;;0.85;0.85;;;;;;;;;;6199089;23;20198;-95
2023/09/01 20:09:12;;;;;;;1.00;0.90;;;;;;;;;;6198255;23;20170;-94
2023/09/01 20:11:40;;;;;;;0.90;0.90;;;;;;;;;;6200968;23;20170;-94
2023/09/01 20:14:08;;;;;;;1.50;1.40;;;;;;;;;;6199801;23;20177;-94
2023/09/01 20:16:37;;;;;;;0.88;0.88;;;;;;;;;;6201038;23;20190;-94
2023/09/01 20:19:13;;;;;;;0.80;0.80;;;;;;;;;;6202213;23;20174;-95
2023/09/01 20:21:41;;;;;;;0.90;0.90;;;;;;;;;;6204145;23;20236;-95